Skip Navigation LinksHome page > Weather > Current weather Skip Navigation Links

Current Weather

Jakutsk, Russia

For information only: do not use for flight planning or navigation.
Latest weather
Observation time Thursday, July 30, 2015 10:30 PM JST
Local time Thursday, July 30, 2015 11:07 PM JST
Flight conditions Visual Meteorological Conditions
Winds
Wind direction North (350°)
Wind speed 4 mph
Visibility 6.2 mi.
Sky condition
Ceiling unlimited
Cloud layer scattered clouds with cumulonimbus 4,000 ft.
Temperature 63°F
Dewpoint 55°F
Altimeter 29.77 in.Hg
Precipitation
QF 10:27 AM
Derived measurements
Relative humidity 77%
Density altitude 960 ft.
Remarks
No significant changes expected in the next two hours.
METAR UEEE 301330Z 35002MPS 9999 SCT040CB 17/13 Q1008 R23L/09//60 NOSIG RMK QFE747

Settings

Location code

InnerDrive.Weather 4.0.5567.0 Release CLR 4.0.30319.34014
Copyright ©2015 Inner Drive Technology. All rights reserved. Portions Copyright ©1986-2015 David Braverman.

Find weather

Site navigation


Skip Navigation Links

Place info

Page info

PayPal - The safer, easier way to pay online!

Return home.

Copyright ©2015 Inner Drive Technology. Purveyors of fine, hand-crafted computer software. Page printed 2015-07-30T14:07:08 UTC.